Time;durP1;ratioP1;P1;durP2;ratioP2;P2;SDS_P1;SDS_P2;PMS_P1;PMS_P2;Temp;Humidity;BMP_temperature;BMP_pressure;BME280_temperature;BME280_humidity;BME280_pressure;Samples;Min_cycle;Max_cycle;Signal;HPM_P1;HPM_P2
2021/11/02 00:01:09;;;;;;;2.63;2.42;;;;;;;6.39;72.40;91534.47;2047647;70;20249;-78
2021/11/02 00:03:36;;;;;;;3.60;2.58;;;;;;;6.35;71.94;91540.53;2047324;70;20626;-73
2021/11/02 00:06:02;;;;;;;3.03;2.72;;;;;;;6.33;73.48;91543.97;2047610;70;20147;-72
2021/11/02 00:08:28;;;;;;;3.08;2.70;;;;;;;6.38;73.30;91538.59;2047396;70;20209;-79
2021/11/02 00:10:54;;;;;;;4.35;2.97;;;;;;;6.21;73.82;91534.16;2046924;70;20658;-71
2021/11/02 00:13:22;;;;;;;4.03;2.95;;;;;;;6.31;73.12;91527.06;2047740;70;20138;-72
2021/11/02 00:15:52;;;;;;;3.65;2.67;;;;;;;6.41;72.94;91521.31;2047473;70;20159;-73
2021/11/02 00:18:19;;;;;;;3.63;3.05;;;;;;;6.43;73.37;91517.94;2044046;70;20166;-72
2021/11/02 00:20:48;;;;;;;3.75;2.53;;;;;;;6.37;73.82;91515.53;2047475;70;20238;-73
2021/11/02 00:23:13;;;;;;;3.80;3.10;;;;;;;6.41;73.42;91520.59;2047250;70;20226;-73
2021/11/02 00:25:39;;;;;;;4.15;2.63;;;;;;;6.51;72.65;91526.78;2047455;70;20198;-71
2021/11/02 00:28:05;;;;;;;3.80;2.90;;;;;;;6.41;72.91;91524.13;2047303;70;20138;-70
2021/11/02 00:30:31;;;;;;;3.25;2.60;;;;;;;6.41;72.96;91526.19;2047426;70;20166;-72
2021/11/02 00:32:57;;;;;;;4.63;3.08;;;;;;;6.30;73.49;91539.59;2046743;70;20143;-70
2021/11/02 00:35:25;;;;;;;4.82;3.20;;;;;;;6.36;73.17;91542.00;2046838;70;20203;-71
2021/11/02 00:37:52;;;;;;;4.47;3.20;;;;;;;6.28;73.34;91539.47;2047463;70;20238;-74
2021/11/02 00:40:23;;;;;;;3.85;3.03;;;;;;;6.01;75.09;91544.88;2047093;70;20154;-73
2021/11/02 00:42:58;;;;;;;4.75;3.15;;;;;;;5.86;75.79;91541.22;2047358;70;20208;-78
2021/11/02 00:47:56;;;;;;;3.45;2.80;;;;;;;6.39;73.81;91520.50;2047723;70;20155;-73
2021/11/02 00:50:22;;;;;;;3.92;3.30;;;;;;;6.52;72.97;91526.16;2047694;70;20147;-76
2021/11/02 00:52:48;;;;;;;5.25;3.50;;;;;;;6.45;72.60;91524.34;2046637;70;20141;-73
2021/11/02 00:55:14;;;;;;;4.40;3.70;;;;;;;6.33;74.11;91526.47;2044103;70;20139;-74
2021/11/02 00:57:39;;;;;;;5.97;3.80;;;;;;;6.39;73.96;91526.09;2047526;70;20221;-77
2021/11/02 01:00:09;;;;;;;7.43;4.53;;;;;;;6.27;74.28;91521.25;2047110;70;20526;-76
2021/11/02 01:02:34;;;;;;;5.72;4.10;;;;;;;6.04;75.26;91522.03;2048032;70;20278;-72
2021/11/02 01:05:00;;;;;;;4.38;3.35;;;;;;;6.01;75.29;91516.94;2047480;70;20241;-72
2021/11/02 01:07:26;;;;;;;3.55;3.08;;;;;;;6.01;74.11;91523.25;2047526;70;20269;-72
2021/11/02 01:09:54;;;;;;;2.95;2.65;;;;;;;5.98;74.69;91527.25;2047617;70;20146;-78
2021/11/02 01:12:20;;;;;;;4.90;3.40;;;;;;;5.82;76.43;91529.09;2046852;70;20518;-74
2021/11/02 01:14:47;;;;;;;4.32;3.38;;;;;;;6.10;75.48;91518.88;2047587;70;20147;-80
2021/11/02 01:17:14;;;;;;;3.60;3.08;;;;;;;6.17;74.21;91528.31;2043868;70;20166;-79
2021/11/02 01:19:40;;;;;;;3.90;3.17;;;;;;;6.25;74.54;91518.34;2046676;70;20159;-76
2021/11/02 01:22:06;;;;;;;5.05;3.42;;;;;;;6.23;74.41;91509.09;2046899;70;20603;-76
2021/11/02 01:24:33;;;;;;;5.68;3.30;;;;;;;6.17;74.57;91509.50;2047682;70;20151;-72
2021/11/02 01:26:59;;;;;;;4.15;3.45;;;;;;;6.26;74.56;91505.81;2044478;70;20190;-77
2021/11/02 01:29:27;;;;;;;4.30;3.22;;;;;;;6.13;75.46;91500.88;2046782;70;20265;-72
2021/11/02 01:31:54;;;;;;;6.30;3.38;;;;;;;6.05;75.65;91511.59;2046810;70;20154;-79
2021/11/02 01:34:21;;;;;;;4.82;3.42;;;;;;;6.16;75.07;91502.44;2047102;70;20634;-73
2021/11/02 01:36:52;;;;;;;4.88;3.55;;;;;;;6.13;74.85;91503.66;2046483;70;20622;-78
2021/11/02 01:39:19;;;;;;;5.20;3.40;;;;;;;6.21;74.47;91504.13;2043965;70;20182;-73
2021/11/02 01:41:49;;;;;;;4.68;3.33;;;;;;;5.80;75.89;91504.53;2047019;70;20158;-76
2021/11/02 01:44:16;;;;;;;4.35;3.40;;;;;;;5.81;75.80;91505.28;2044474;70;20190;-77
2021/11/02 01:46:44;;;;;;;4.07;3.08;;;;;;;5.66;76.80;91506.50;2044315;70;20162;-77
2021/11/02 01:49:10;;;;;;;5.75;2.97;;;;;;;6.08;74.71;91499.91;2046911;70;20166;-77
2021/11/02 01:51:40;;;;;;;3.42;2.72;;;;;;;5.98;74.63;91496.53;2046823;70;20257;-77
2021/11/02 01:54:07;;;;;;;4.22;2.80;;;;;;;6.02;74.88;91498.84;2046927;70;20170;-74
2021/11/02 01:56:35;;;;;;;3.42;3.08;;;;;;;5.99;75.50;91502.84;2046445;70;20170;-72
2021/11/02 01:59:03;;;;;;;6.15;3.22;;;;;;;6.02;75.37;91498.84;2046342;70;20345;-74
2021/11/02 02:01:50;;;;;;;4.25;2.97;;;;;;;6.10;75.05;91496.53;2046791;70;20166;-71
2021/11/02 02:04:42;;;;;;;3.67;3.10;;;;;;;6.08;75.04;91491.53;2046736;70;20139;-70
2021/11/02 02:07:40;;;;;;;5.10;3.20;;;;;;;6.14;74.13;91496.75;2047334;70;20611;-74
2021/11/02 02:10:09;;;;;;;5.43;3.97;;;;;;;6.13;74.43;91491.75;2046933;70;20655;-74
2021/11/02 02:13:02;;;;;;;4.20;3.60;;;;;;;6.13;74.61;91486.16;2047331;70;20242;-74
2021/11/02 02:16:12;;;;;;;4.35;3.70;;;;;;;6.28;73.53;91471.69;2047967;70;20146;-78
2021/11/02 02:18:51;;;;;;;4.63;3.55;;;;;;;6.14;73.38;91462.47;2045334;70;20154;-77
2021/11/02 02:21:34;;;;;;;3.80;3.33;;;;;;;6.07;73.79;91455.81;2047834;70;20208;-77
2021/11/02 02:24:19;;;;;;;4.38;3.63;;;;;;;5.81;75.17;91455.00;2047934;70;20151;-77
2021/11/02 02:27:12;;;;;;;4.28;3.50;;;;;;;5.89;74.26;91454.75;2047915;70;20177;-74
2021/11/02 02:29:42;;;;;;;3.40;3.10;;;;;;;6.04;74.21;91457.03;2047960;70;20143;-75
2021/11/02 02:32:15;;;;;;;4.50;3.40;;;;;;;5.98;74.34;91460.22;2047493;70;20177;-74
2021/11/02 02:34:43;;;;;;;4.90;3.33;;;;;;;6.09;73.92;91467.09;2047852;70;20143;-71
2021/11/02 02:37:09;;;;;;;5.10;3.70;;;;;;;6.10;74.37;91457.41;2048388;70;20135;-73
2021/11/02 02:39:36;;;;;;;4.75;3.67;;;;;;;6.11;74.45;91467.22;2048411;70;20154;-79
2021/11/02 02:42:09;;;;;;;4.28;3.35;;;;;;;5.97;74.91;91469.94;2047844;70;20155;-79
2021/11/02 02:44:44;;;;;;;4.32;3.60;;;;;;;5.98;74.75;91471.41;2045095;70;20241;-82
2021/11/02 02:47:10;;;;;;;4.60;3.50;;;;;;;5.90;75.29;91476.47;2047677;70;20186;-76
2021/11/02 02:49:38;;;;;;;4.07;3.42;;;;;;;6.07;73.69;91467.00;2048364;70;20151;-77
2021/11/02 02:52:06;;;;;;;5.03;3.00;;;;;;;5.85;74.48;91472.00;2045167;70;20225;-76
2021/11/02 02:54:33;;;;;;;4.03;3.30;;;;;;;5.71;75.58;91477.50;2048205;70;20158;-75
2021/11/02 02:57:02;;;;;;;3.45;3.03;;;;;;;5.73;75.71;91474.09;2045039;70;20142;-74
2021/11/02 02:59:30;;;;;;;5.38;3.00;;;;;;;5.80;75.76;91464.72;2047787;70;20143;-76
2021/11/02 03:01:56;;;;;;;3.33;2.70;;;;;;;5.89;74.69;91477.09;2047770;70;20139;-75
2021/11/02 03:04:30;;;;;;;3.03;2.35;;;;;;;5.89;74.32;91475.03;2047780;70;20150;-75
2021/11/02 03:06:58;;;;;;;2.88;2.58;;;;;;;5.82;74.48;91476.03;2047834;70;20150;-78
2021/11/02 03:09:28;;;;;;;4.00;2.85;;;;;;;5.88;74.63;91478.44;2047829;70;20170;-77
2021/11/02 03:11:59;;;;;;;3.13;2.83;;;;;;;5.76;75.26;91484.03;2047852;70;20599;-74
2021/11/02 03:14:44;;;;;;;3.33;2.97;;;;;;;5.70;75.91;91484.41;2047837;70;20234;-76
2021/11/02 03:17:13;;;;;;;2.75;2.40;;;;;;;5.81;74.84;91480.13;2047886;70;20171;-76
2021/11/02 03:58:26;;;;;;;3.63;3.00;;;;;;;5.80;75.44;91471.03;2047764;70;20219;-71
2021/11/02 05:06:49;;;;;;;5.93;3.88;;;;;;;5.42;75.86;91477.16;2047574;70;20213;-72
2021/11/02 06:08:57;;;;;;;4.07;3.45;;;;;;;5.33;74.77;91487.84;2048138;70;20141;-80
2021/11/02 06:28:49;;;;;;;2.47;1.80;;;;;;;5.37;75.31;91498.50;2045782;70;20614;-77
2021/11/02 06:31:37;;;;;;;4.10;1.95;;;;;;;5.47;74.97;91507.50;2048444;70;20159;-77
2021/11/02 06:34:11;;;;;;;2.30;1.90;;;;;;;5.45;75.12;91503.84;2048375;70;20245;-77
2021/11/02 06:47:52;;;;;;;5.78;4.00;;;;;;;5.19;77.04;91519.72;2048355;70;20166;-76
2021/11/02 07:19:03;;;;;;;4.38;3.80;;;;;;;5.99;74.49;91528.72;2048112;70;20175;-80
2021/11/02 08:48:09;;;;;;;4.75;4.10;;;;;;;8.80;65.74;91547.88;2048074;70;20155;-80
2021/11/02 08:50:41;;;;;;;6.28;4.30;;;;;;;9.13;64.37;91550.88;2048159;70;20500;-81
2021/11/02 08:53:09;;;;;;;4.30;3.80;;;;;;;9.08;63.68;91551.31;2048457;70;20542;-81
2021/11/02 08:55:40;;;;;;;5.32;3.50;;;;;;;8.69;65.09;91543.81;2048012;70;20142;-78
2021/11/02 08:58:06;;;;;;;3.72;3.33;;;;;;;8.60;65.82;91545.50;2048271;70;20154;-76
2021/11/02 09:00:34;;;;;;;5.72;3.20;;;;;;;8.78;65.30;91545.66;2048262;70;20134;-81
2021/11/02 09:03:07;;;;;;;4.40;3.13;;;;;;;9.10;64.68;91543.69;2047303;70;20166;-81
2021/11/02 09:05:34;;;;;;;3.42;2.80;;;;;;;9.07;64.51;91547.03;2048316;70;20503;-82
2021/11/02 09:08:01;;;;;;;7.20;4.18;;;;;;;9.31;65.33;91539.03;2048142;70;20154;-80
2021/11/02 09:10:27;;;;;;;4.95;3.70;;;;;;;9.54;63.24;91543.63;2048171;70;20139;-76
2021/11/02 09:12:58;;;;;;;4.30;2.80;;;;;;;9.45;62.49;91524.94;2047584;70;20150;-81
2021/11/02 09:15:29;;;;;;;7.93;5.97;;;;;;;9.62;63.38;91535.53;2048153;70;20146;-79
2021/11/02 09:17:57;;;;;;;5.35;4.32;;;;;;;9.60;62.26;91533.38;2047986;70;20135;-76
2021/11/02 09:20:25;;;;;;;5.25;4.10;;;;;;;10.68;61.34;91537.34;2047582;70;20241;-82
2021/11/02 09:22:51;;;;;;;2.13;1.70;;;;;;;11.32;58.10;91535.72;2048125;70;20232;-80
2021/11/02 09:25:21;;;;;;;3.85;3.35;;;;;;;11.38;57.90;91533.13;2047584;70;20198;-82
2021/11/02 09:27:48;;;;;;;3.25;2.72;;;;;;;11.56;57.79;91530.28;2048095;70;20222;-81
2021/11/02 09:30:16;;;;;;;6.15;4.28;;;;;;;11.20;57.50;91521.16;2048054;70;20238;-81
2021/11/02 09:32:43;;;;;;;3.15;2.85;;;;;;;11.51;57.92;91520.25;2047454;70;20135;-81
2021/11/02 09:35:11;;;;;;;2.50;2.30;;;;;;;11.39;56.81;91526.13;2047564;70;20142;-80
2021/11/02 09:37:41;;;;;;;4.50;3.67;;;;;;;11.94;56.89;91525.41;2048049;70;20135;-78
2021/11/02 09:40:26;;;;;;;2.42;2.08;;;;;;;12.87;56.20;91530.06;2048295;70;20135;-82
2021/11/02 09:43:02;;;;;;;1.65;1.55;;;;;;;12.85;53.86;91526.47;2048501;70;20142;-78
2021/11/02 09:45:37;;;;;;;2.40;1.50;;;;;;;12.56;53.56;91527.59;2048681;70;20282;-82
2021/11/02 09:48:21;;;;;;;2.67;2.40;;;;;;;11.84;54.68;91521.50;2048564;70;20592;-80
2021/11/02 09:51:09;;;;;;;2.88;2.30;;;;;;;12.79;53.71;91526.25;2048804;70;20202;-78
2021/11/02 09:53:59;;;;;;;1.60;1.50;;;;;;;12.55;52.26;91520.47;2048563;70;20204;-79
2021/11/02 09:57:13;;;;;;;3.20;2.80;;;;;;;11.59;55.53;91517.75;2049042;70;20161;-78
2021/11/02 10:00:31;;;;;;;2.55;1.90;;;;;;;12.58;54.17;91519.19;2047602;70;20675;-82
2021/11/02 10:03:21;;;;;;;2.60;2.30;;;;;;;12.16;53.60;91522.69;2047270;70;20172;-77
2021/11/02 10:06:05;;;;;;;2.75;2.38;;;;;;;11.97;55.58;91517.75;2048659;70;20171;-79
2021/11/02 10:08:46;;;;;;;2.72;2.15;;;;;;;11.51;56.77;91506.16;2048018;70;20158;-78
2021/11/02 10:11:41;;;;;;;5.25;2.00;;;;;;;11.92;56.15;91508.41;2048549;70;20138;-82
2021/11/02 10:14:13;;;;;;;2.45;2.25;;;;;;;12.17;54.61;91509.28;2048590;70;20169;-78
2021/11/02 10:16:57;;;;;;;3.42;2.20;;;;;;;11.57;55.45;91505.66;2048587;70;20146;-80
2021/11/02 10:19:52;;;;;;;4.07;2.30;;;;;;;11.44;56.09;91510.81;2048442;70;20238;-78
2021/11/02 10:22:42;;;;;;;3.30;2.60;;;;;;;11.87;55.53;91520.19;2048612;70;20492;-75
2021/11/02 10:25:32;;;;;;;3.53;2.40;;;;;;;11.15;57.06;91519.53;2048717;70;20159;-73
2021/11/02 10:28:37;;;;;;;3.10;2.80;;;;;;;10.92;57.34;91517.91;2049205;70;20146;-80
2021/11/02 10:31:12;;;;;;;3.10;2.25;;;;;;;11.00;58.70;91512.63;2049135;70;20214;-82
2021/11/02 10:33:47;;;;;;;4.30;2.75;;;;;;;10.81;58.04;91524.50;2048436;70;20174;-73
2021/11/02 10:36:40;;;;;;;2.58;2.38;;;;;;;11.22;58.51;91517.69;2047849;70;20158;-78
2021/11/02 10:39:16;;;;;;;5.20;3.47;;;;;;;11.36;57.42;91521.78;2048331;70;20143;-76
2021/11/02 10:41:57;;;;;;;3.50;2.70;;;;;;;11.80;57.39;91529.78;2047915;70;20149;-74
2021/11/02 10:44:43;;;;;;;3.00;2.53;;;;;;;12.07;55.41;91528.69;2048529;70;20205;-73
2021/11/02 10:47:19;;;;;;;5.07;2.92;;;;;;;11.08;56.71;91529.09;2048237;70;20143;-72
2021/11/02 10:50:10;;;;;;;4.20;2.70;;;;;;;11.33;55.44;91522.34;2048437;70;20233;-74
2021/11/02 10:52:43;;;;;;;4.55;3.55;;;;;;;11.14;58.16;91518.09;2046919;70;20162;-75
2021/11/02 10:56:02;;;;;;;3.05;2.42;;;;;;;10.50;58.50;91514.81;2046893;70;20186;-74
2021/11/02 10:58:35;;;;;;;3.85;2.85;;;;;;;10.53;58.97;91518.41;2035098;70;20152;-72
2021/11/02 11:01:07;;;;;;;4.78;2.90;;;;;;;10.97;58.64;91511.09;2047932;70;20647;-77
2021/11/02 11:03:35;;;;;;;5.30;3.20;;;;;;;10.28;60.25;91508.25;2047835;70;20241;-74
2021/11/02 11:06:03;;;;;;;3.75;3.05;;;;;;;10.28;59.98;91506.16;2046609;70;20673;-79
2021/11/02 11:08:32;;;;;;;5.53;3.40;;;;;;;10.48;60.02;91499.91;2047824;70;20131;-69
2021/11/02 11:11:00;;;;;;;5.00;3.63;;;;;;;10.53;59.74;91504.34;2046803;70;20595;-79
2021/11/02 11:13:28;;;;;;;5.95;3.75;;;;;;;9.77;62.10;91494.75;2047545;70;20151;-76
2021/11/02 11:16:06;;;;;;;4.15;3.45;;;;;;;9.70;62.38;91493.75;2047529;70;20229;-70
2021/11/02 11:18:53;;;;;;;5.78;3.78;;;;;;;11.11;60.85;91502.47;2047870;70;20146;-71
2021/11/02 11:21:26;;;;;;;4.63;3.42;;;;;;;13.36;56.33;91509.06;2047881;70;20199;-76
2021/11/02 11:23:56;;;;;;;;;;;;;;;12.95;54.04;91518.31;2048216;70;20158;-73
2021/11/02 11:26:25;;;;;;;3.95;3.22;;;;;;;11.01;58.98;91516.88;2047276;70;20070;-77
2021/11/02 11:28:54;;;;;;;3.90;3.50;;;;;;;11.43;57.98;91517.81;2047349;70;20170;-72
2021/11/02 11:31:22;;;;;;;9.63;4.90;;;;;;;10.97;58.49;91513.91;2047607;70;20228;-69
2021/11/02 11:33:56;;;;;;;7.63;4.63;;;;;;;10.67;60.26;91519.75;2047783;70;20229;-70
2021/11/02 11:36:23;;;;;;;6.03;4.15;;;;;;;10.92;60.36;91524.28;2047769;70;20158;-71
2021/11/02 11:38:55;;;;;;;4.68;3.35;;;;;;;10.70;59.92;91531.81;2047986;70;20142;-77
2021/11/02 11:41:25;;;;;;;4.28;3.47;;;;;;;10.74;59.75;91526.34;2047824;70;20166;-70
2021/11/02 11:43:53;;;;;;;7.00;4.47;;;;;;;11.06;60.10;91523.41;2047773;70;20166;-75
2021/11/02 11:46:19;;;;;;;7.20;5.15;;;;;;;10.61;61.50;91521.56;2047304;70;20146;-72
2021/11/02 11:48:54;;;;;;;5.28;4.20;;;;;;;11.00;59.79;91518.25;2047493;70;20211;-75
2021/11/02 11:51:25;;;;;;;6.50;4.85;;;;;;;10.65;60.81;91521.75;2047696;70;20158;-70
2021/11/02 11:54:00;;;;;;;5.43;4.22;;;;;;;10.90;60.71;91527.03;2048006;70;20143;-74
2021/11/02 11:56:33;;;;;;;5.78;4.10;;;;;;;10.93;60.65;91525.72;2047741;70;20185;-73
2021/11/02 11:58:59;;;;;;;5.28;4.38;;;;;;;10.93;59.69;91525.00;2047862;70;20480;-76
2021/11/02 12:01:39;;;;;;;6.50;4.13;;;;;;;10.51;61.31;91524.69;2047906;70;20178;-79
2021/11/02 12:04:11;;;;;;;6.20;4.15;;;;;;;11.22;60.02;91520.50;2047642;70;20154;-73
2021/11/02 12:06:58;;;;;;;5.60;4.20;;;;;;;10.74;60.59;91520.72;2047849;70;20171;-80
2021/11/02 12:09:26;;;;;;;5.63;4.65;;;;;;;10.88;60.13;91526.19;2047854;70;20572;-76
2021/11/02 12:11:52;;;;;;;5.32;4.00;;;;;;;11.00;60.22;91523.88;2047412;70;20621;-74
2021/11/02 12:14:24;;;;;;;5.50;4.40;;;;;;;10.51;61.53;91529.59;2047928;70;20154;-70
2021/11/02 12:16:51;;;;;;;6.60;5.00;;;;;;;10.71;60.59;91524.09;2047103;70;20707;-70
2021/11/02 12:19:39;;;;;;;8.60;5.75;;;;;;;10.40;62.02;91522.81;2046733;70;20185;-77
2021/11/02 12:22:12;;;;;;;8.60;4.93;;;;;;;10.15;62.58;91516.13;2047674;70;20131;-73
2021/11/02 12:24:42;;;;;;;10.85;7.40;;;;;;;10.59;61.31;91516.59;2047690;70;20200;-74
2021/11/02 12:27:19;;;;;;;9.05;6.07;;;;;;;11.02;60.42;91506.34;2047834;70;20163;-69
2021/11/02 12:29:50;;;;;;;7.55;4.25;;;;;;;10.83;61.00;91499.97;2047124;70;20154;-73
2021/11/02 12:32:18;;;;;;;4.38;3.35;;;;;;;10.72;60.63;91508.63;2046983;70;20174;-71
2021/11/02 12:34:50;;;;;;;17.58;10.63;;;;;;;10.91;60.77;91510.84;2047848;70;20145;-74
2021/11/02 12:37:21;;;;;;;8.15;5.40;;;;;;;11.51;59.82;91503.34;2047857;70;20591;-72
2021/11/02 12:39:49;;;;;;;4.82;3.90;;;;;;;12.38;57.38;91507.91;2047380;70;20150;-77
2021/11/02 12:42:26;;;;;;;6.22;4.18;;;;;;;12.61;56.16;91490.38;2048016;70;20165;-77
2021/11/02 12:44:54;;;;;;;7.30;5.38;;;;;;;12.39;55.61;91484.69;2047907;70;20169;-78
2021/11/02 12:47:23;;;;;;;7.53;4.90;;;;;;;12.24;56.11;91490.50;2047964;70;20257;-76
2021/11/02 12:49:56;;;;;;;6.90;5.00;;;;;;;11.11;59.09;91483.47;2047946;70;20154;-77
2021/11/02 12:52:27;;;;;;;7.78;5.60;;;;;;;10.54;61.10;91478.41;2047725;70;20210;-72
2021/11/02 12:54:59;;;;;;;6.43;4.95;;;;;;;10.85;60.29;91474.72;2047823;70;20230;-72
2021/11/02 12:57:41;;;;;;;9.30;4.65;;;;;;;10.78;59.76;91467.41;2047823;70;20165;-75
2021/11/02 13:00:19;;;;;;;5.88;3.58;;;;;;;10.54;60.11;91474.88;2047787;70;20591;-75
2021/11/02 13:02:51;;;;;;;4.07;3.45;;;;;;;10.68;59.83;91464.19;2047622;70;20154;-75
2021/11/02 13:05:22;;;;;;;3.72;3.17;;;;;;;11.15;58.50;91469.56;2047913;70;20153;-78
2021/11/02 13:07:50;;;;;;;4.32;3.28;;;;;;;11.10;58.82;91470.06;2048178;70;20595;-70
2021/11/02 13:10:21;;;;;;;4.55;3.85;;;;;;;11.18;58.46;91467.56;2048251;70;20146;-73
2021/11/02 13:12:52;;;;;;;4.50;3.70;;;;;;;10.20;62.72;91466.38;2047421;70;20139;-72
2021/11/02 13:15:20;;;;;;;5.27;3.90;;;;;;;9.76;65.59;91462.38;2047292;70;20147;-75
2021/11/02 13:17:48;;;;;;;6.72;3.63;;;;;;;9.94;64.71;91471.59;2047765;70;20171;-79
2021/11/02 13:20:30;;;;;;;4.60;3.70;;;;;;;10.41;62.40;91473.63;2048006;70;20182;-76
2021/11/02 13:22:56;;;;;;;7.18;3.92;;;;;;;10.27;63.22;91476.56;2047758;70;20530;-78
2021/11/02 13:25:25;;;;;;;4.55;3.90;;;;;;;10.02;64.24;91477.59;2048009;70;20150;-83
2021/11/02 13:27:54;;;;;;;6.80;4.40;;;;;;;10.23;62.54;91467.94;2048094;70;20589;-75
2021/11/02 13:30:32;;;;;;;5.88;4.32;;;;;;;10.21;62.91;91467.84;2048157;70;20162;-75
2021/11/02 13:33:16;;;;;;;7.72;4.60;;;;;;;10.33;62.36;91476.09;2047895;70;20158;-72
2021/11/02 13:35:56;;;;;;;6.05;4.80;;;;;;;10.21;62.40;91473.47;2048107;70;20190;-76
2021/11/02 13:38:25;;;;;;;6.78;4.95;;;;;;;10.04;62.95;91472.06;2047599;70;20186;-72
2021/11/02 13:40:53;;;;;;;7.43;4.90;;;;;;;9.86;64.09;91471.28;2048981;70;20154;-78
2021/11/02 13:43:33;;;;;;;9.07;6.30;;;;;;;10.02;63.55;91469.16;2048851;70;20146;-75
2021/11/02 13:46:00;;;;;;;11.25;7.60;;;;;;;9.96;63.90;91468.91;2048203;70;20162;-75
2021/11/02 13:48:27;;;;;;;13.00;8.35;;;;;;;9.71;64.72;91477.63;2047830;70;20139;-71
2021/11/02 13:50:54;;;;;;;14.07;8.75;;;;;;;9.80;64.85;91471.00;2048104;70;20147;-72
2021/11/02 13:53:22;;;;;;;9.13;6.07;;;;;;;9.68;64.92;91476.81;2044800;70;20599;-83
2021/11/02 13:55:48;;;;;;;6.57;5.20;;;;;;;9.52;65.97;91462.75;2047957;70;20170;-77
2021/11/02 13:58:14;;;;;;;9.18;5.60;;;;;;;9.60;65.36;91479.97;2048247;70;20143;-76
2021/11/02 14:00:40;;;;;;;8.07;5.40;;;;;;;9.63;65.48;91473.09;2049208;70;20166;-81
2021/11/02 14:03:15;;;;;;;12.07;5.80;;;;;;;9.49;65.34;91466.13;2048914;70;20163;-83
2021/11/02 14:05:43;;;;;;;10.80;8.10;;;;;;;9.39;66.75;91463.56;2047753;70;20801;-83
2021/11/02 14:08:10;;;;;;;6.50;5.38;;;;;;;9.08;67.84;91465.00;2048087;70;20153;-81
2021/11/02 14:10:35;;;;;;;8.30;6.60;;;;;;;9.32;66.47;91468.19;2048138;70;20313;-78
2021/11/02 14:13:01;;;;;;;10.25;7.80;;;;;;;9.06;68.15;91466.97;2048039;70;20686;-80
2021/11/02 14:15:29;;;;;;;9.75;7.50;;;;;;;9.17;66.46;91466.09;2047524;70;20150;-78
2021/11/02 14:17:54;;;;;;;9.05;7.50;;;;;;;9.22;66.16;91462.13;2047978;70;20584;-79
2021/11/02 14:20:32;;;;;;;9.35;7.00;;;;;;;9.17;66.97;91460.50;2048092;70;20146;-76
2021/11/02 14:22:59;;;;;;;8.40;6.90;;;;;;;9.19;66.52;91454.97;2047975;70;20139;-82
2021/11/02 14:25:38;;;;;;;8.77;7.25;;;;;;;9.11;66.74;91452.50;2047441;70;20150;-80
2021/11/02 14:28:06;;;;;;;12.00;8.60;;;;;;;8.97;68.12;91449.03;2048288;70;20219;-78
2021/11/02 14:30:32;;;;;;;10.05;7.38;;;;;;;8.94;67.56;91441.91;2048575;70;20682;-83
2021/11/02 14:33:01;;;;;;;9.90;7.18;;;;;;;8.83;69.07;91446.28;2048673;70;20143;-78
2021/11/02 14:35:46;;;;;;;8.02;6.10;;;;;;;9.00;66.87;91444.25;2048559;70;20499;-80
2021/11/02 14:38:16;;;;;;;10.02;7.22;;;;;;;8.62;68.93;91460.72;2048493;70;20172;-81
2021/11/02 14:40:53;;;;;;;12.23;7.10;;;;;;;8.04;71.76;91462.06;2048647;70;20254;-79
2021/11/02 14:43:28;;;;;;;10.32;6.65;;;;;;;8.38;69.41;91469.44;2048378;70;20193;-82
2021/11/02 14:45:58;;;;;;;8.75;6.43;;;;;;;8.52;68.89;91463.78;2048643;70;20151;-79
2021/11/02 14:48:29;;;;;;;9.02;6.25;;;;;;;8.54;69.06;91466.66;2048416;70;20603;-79
2021/11/02 14:51:13;;;;;;;8.77;5.30;;;;;;;8.61;68.54;91470.47;2048501;70;20268;-82
2021/11/02 14:53:46;;;;;;;11.30;7.10;;;;;;;8.55;68.59;91470.19;2047918;70;20614;-83
2021/11/02 14:56:16;;;;;;;13.32;7.78;;;;;;;8.37;69.27;91467.97;2048407;70;20299;-83
2021/11/02 14:58:53;;;;;;;11.23;7.80;;;;;;;8.47;68.32;91455.78;2048489;70;20534;-77
2021/11/02 15:01:19;;;;;;;11.73;8.02;;;;;;;8.47;68.89;91447.38;2048573;70;20242;-77
2021/11/02 15:04:06;;;;;;;12.27;7.80;;;;;;;8.32;70.50;91443.84;2048344;70;20305;-78
2021/11/02 15:06:43;;;;;;;18.92;13.48;;;;;;;8.34;69.84;91446.75;2048517;70;20186;-75
2021/11/02 15:09:11;;;;;;;15.23;11.23;;;;;;;8.20;70.53;91448.88;2048499;70;20147;-77
2021/11/02 15:11:39;;;;;;;16.98;12.45;;;;;;;8.26;69.66;91457.56;2048502;70;20155;-75
2021/11/02 15:14:10;;;;;;;24.33;14.55;;;;;;;8.24;68.84;91462.34;2048408;70;20237;-77
2021/11/02 15:17:01;;;;;;;18.58;11.57;;;;;;;8.09;70.11;91458.84;2048492;70;20158;-76
2021/11/02 15:19:32;;;;;;;15.73;10.20;;;;;;;8.11;69.67;91467.38;2048315;70;20598;-72
2021/11/02 15:22:05;;;;;;;26.52;13.45;;;;;;;7.94;71.28;91479.13;2048346;70;20222;-77
2021/11/02 15:24:37;;;;;;;16.98;9.45;;;;;;;8.03;69.93;91475.38;2048388;70;20170;-72
2021/11/02 15:27:06;;;;;;;19.20;12.63;;;;;;;7.88;70.41;91476.00;2048352;70;20595;-74
2021/11/02 15:29:35;;;;;;;20.15;14.35;;;;;;;7.88;71.57;91484.41;2048844;70;20158;-73
2021/11/02 15:32:04;;;;;;;24.27;17.48;;;;;;;8.02;69.71;91473.91;2049918;70;20635;-76
2021/11/02 15:34:43;;;;;;;19.48;13.70;;;;;;;7.85;71.46;91485.66;2048767;70;20147;-79
2021/11/02 15:37:16;;;;;;;18.50;13.70;;;;;;;7.81;71.53;91486.16;2048639;70;20579;-79
2021/11/02 15:39:45;;;;;;;15.85;11.45;;;;;;;7.74;71.96;91483.66;2048306;70;20170;-78
2021/11/02 15:42:23;;;;;;;15.68;11.15;;;;;;;7.88;70.21;91482.34;2048938;70;20147;-76
2021/11/02 15:44:55;;;;;;;15.20;10.27;;;;;;;7.62;71.74;91490.09;2049149;70;20337;-74
2021/11/02 15:47:22;;;;;;;14.90;10.50;;;;;;;7.77;70.33;91494.38;2048326;70;20695;-76
2021/11/02 15:50:00;;;;;;;13.55;9.80;;;;;;;7.67;70.57;91491.03;2047783;70;20154;-71
2021/11/02 15:52:28;;;;;;;14.02;8.63;;;;;;;7.70;70.51;91489.81;2047779;70;20150;-75
2021/11/02 15:54:54;;;;;;;20.05;9.52;;;;;;;7.76;70.99;91492.19;2048229;70;20139;-72
2021/11/02 15:57:21;;;;;;;10.43;7.30;;;;;;;7.73;71.88;91485.75;2048287;70;20143;-75
2021/11/02 16:00:01;;;;;;;11.43;7.32;;;;;;;7.81;70.69;91488.97;2048424;70;20169;-72
2021/11/02 16:02:34;;;;;;;40.60;24.27;;;;;;;7.61;71.02;91488.66;2048201;70;20417;-74
2021/11/02 16:05:11;;;;;;;21.48;13.75;;;;;;;7.59;71.19;91491.34;2048279;70;20151;-77
2021/11/02 16:07:37;;;;;;;25.55;15.13;;;;;;;7.33;73.63;91501.16;2048318;70;20158;-81
2021/11/02 16:10:07;;;;;;;28.63;16.35;;;;;;;7.44;72.32;91505.22;2048255;70;20507;-75
2021/11/02 16:12:40;;;;;;;28.58;16.88;;;;;;;7.44;72.01;91508.03;2048293;70;20150;-82
2021/11/02 16:15:16;;;;;;;28.42;17.02;;;;;;;7.43;71.28;91512.19;2048204;70;20138;-76
2021/11/02 16:17:44;;;;;;;23.42;15.98;;;;;;;7.36;71.46;91511.13;2048194;70;20202;-74
2021/11/02 16:20:18;;;;;;;20.25;12.13;;;;;;;7.30;73.01;91514.31;2048405;70;20178;-73
2021/11/02 16:23:06;;;;;;;16.88;11.32;;;;;;;7.37;71.77;91520.97;2048214;70;20153;-78
2021/11/02 16:25:37;;;;;;;21.42;14.38;;;;;;;7.38;71.85;91519.66;2048320;70;20143;-79
2021/11/02 16:28:05;;;;;;;25.08;16.00;;;;;;;7.36;71.60;91525.84;2048290;70;20245;-75
2021/11/02 16:30:48;;;;;;;25.20;15.95;;;;;;;7.44;70.92;91533.22;2047781;70;20523;-78
2021/11/02 16:33:15;;;;;;;20.40;14.02;;;;;;;7.32;71.74;91527.69;2048292;70;20154;-74
2021/11/02 16:35:51;;;;;;;8.65;5.93;;;;;;;7.34;71.98;91533.41;2048206;70;20260;-76
2021/11/02 16:38:35;;;;;;;5.40;2.60;;;;;;;7.40;71.83;91530.94;2048243;70;20165;-75
2021/11/02 16:41:06;;;;;;;3.45;2.20;;;;;;;7.47;72.13;91535.53;2047509;70;20485;-77
2021/11/02 16:43:46;;;;;;;13.13;9.15;;;;;;;7.19;73.46;91542.38;2048042;70;20150;-79
2021/11/02 16:46:29;;;;;;;12.32;7.55;;;;;;;7.24;72.60;91536.41;2048173;70;20655;-77
2021/11/02 16:49:01;;;;;;;9.95;7.22;;;;;;;6.96;72.74;91537.63;2048042;70;20146;-76
2021/11/02 16:51:50;;;;;;;20.23;13.32;;;;;;;7.04;71.99;91530.41;2048018;70;20147;-72
2021/11/02 16:54:37;;;;;;;27.23;16.23;;;;;;;7.10;71.93;91541.22;2048166;70;20157;-77
2021/11/02 16:57:21;;;;;;;25.13;16.40;;;;;;;7.09;71.41;91539.75;2048176;70;20647;-75
2021/11/02 16:59:53;;;;;;;22.35;15.77;;;;;;;6.92;73.18;91554.94;2048118;70;20138;-77
2021/11/02 17:02:24;;;;;;;16.60;12.13;;;;;;;6.99;72.16;91556.72;2047975;70;20273;-75
2021/11/02 17:05:11;;;;;;;11.45;6.63;;;;;;;6.97;72.11;91553.09;2048072;70;20151;-74
2021/11/02 17:08:10;;;;;;;6.40;4.90;;;;;;;6.88;73.67;91558.25;2048090;70;20610;-75
2021/11/02 17:10:58;;;;;;;6.20;3.83;;;;;;;6.90;72.81;91573.69;2047443;70;20143;-77
2021/11/02 17:13:28;;;;;;;5.97;4.25;;;;;;;7.08;71.63;91569.81;2048021;70;20218;-72
2021/11/02 17:15:55;;;;;;;16.13;10.65;;;;;;;6.91;71.95;91575.84;2046564;70;20161;-72